createdAt,value
2022-08-07T07:07:18.853Z,544.00
2022-08-07T07:08:10.064Z,544.00
2022-08-07T07:09:06.885Z,544.00
2022-08-07T07:10:06.858Z,536.00
2022-08-07T07:11:13.183Z,540.00
2022-08-07T07:12:19.648Z,548.00
2022-08-07T07:13:06.854Z,552.00
2022-08-07T07:14:08.310Z,556.00
2022-08-07T07:15:08.597Z,556.00
2022-08-07T07:16:06.735Z,560.00
2022-08-07T07:17:06.711Z,560.00
2022-08-07T07:18:06.692Z,564.00
2022-08-07T07:19:54.831Z,560.00
2022-08-07T07:20:06.670Z,568.00
2022-08-07T07:21:13.630Z,568.00
2022-08-07T07:22:32.278Z,568.00
2022-08-07T07:24:08.227Z,572.00
2022-08-07T07:24:11.735Z,572.00
2022-08-07T07:26:31.583Z,572.00
2022-08-07T07:26:34.907Z,576.00
2022-08-07T07:27:06.729Z,580.00
2022-08-07T07:28:07.569Z,580.00
2022-08-07T07:29:56.107Z,584.00
2022-08-07T07:30:09.119Z,588.00
2022-08-07T07:31:07.070Z,588.00
2022-08-07T07:32:06.459Z,588.00
2022-08-07T07:33:06.416Z,592.00
2022-08-07T07:34:06.426Z,592.00
2022-08-07T07:35:06.394Z,596.00
2022-08-07T07:36:13.308Z,596.00
2022-08-07T07:37:21.558Z,596.00
2022-08-07T07:38:06.707Z,600.00
2022-08-07T07:39:06.389Z,600.00
2022-08-07T07:40:06.333Z,604.00
2022-08-07T07:41:08.943Z,604.00
2022-08-07T07:42:13.760Z,608.00
2022-08-07T07:43:15.316Z,608.00
2022-08-07T07:44:17.458Z,608.00
2022-08-07T07:45:06.219Z,612.00
2022-08-07T07:46:53.684Z,612.00
2022-08-07T07:47:15.705Z,612.00
2022-08-07T07:48:06.181Z,612.00
2022-08-07T07:49:09.127Z,616.00
2022-08-07T07:50:33.455Z,616.00
2022-08-07T07:51:07.791Z,620.00
2022-08-07T07:52:06.113Z,620.00
2022-08-07T07:53:06.089Z,624.00
2022-08-07T07:54:06.092Z,628.00
2022-08-07T07:55:06.088Z,632.00
2022-08-07T07:56:06.059Z,632.00
2022-08-07T07:57:06.042Z,632.00
2022-08-07T07:58:06.005Z,640.00
2022-08-07T07:59:06.216Z,640.00
2022-08-07T08:00:05.974Z,668.00
2022-08-07T08:02:01.930Z,680.00
2022-08-07T08:02:10.296Z,668.00
2022-08-07T08:03:07.908Z,668.00
2022-08-07T08:04:11.523Z,664.00
2022-08-07T08:05:11.506Z,660.00
2022-08-07T08:06:05.901Z,660.00
2022-08-07T08:07:07.694Z,656.00
2022-08-07T08:08:05.860Z,664.00
2022-08-07T08:09:05.827Z,664.00
2022-08-07T08:10:05.932Z,680.00
2022-08-07T08:11:05.812Z,696.00
2022-08-07T08:12:06.056Z,696.00
2022-08-07T08:13:05.763Z,684.00
2022-08-07T08:14:05.748Z,680.00
2022-08-07T08:15:07.004Z,692.00
2022-08-07T08:16:05.736Z,692.00
2022-08-07T08:17:55.576Z,688.00
2022-08-07T08:18:17.334Z,696.00
2022-08-07T08:19:17.476Z,700.00
2022-08-07T08:20:17.366Z,704.00
2022-08-07T08:21:05.643Z,788.00
2022-08-07T08:22:05.619Z,876.00
2022-08-07T08:23:06.452Z,712.00
2022-08-07T08:24:05.617Z,712.00
2022-08-07T08:25:24.973Z,712.00
2022-08-07T08:26:07.128Z,720.00
2022-08-07T08:27:09.278Z,716.00
2022-08-07T08:28:05.536Z,720.00
2022-08-07T08:29:05.503Z,720.00
2022-08-07T08:30:05.500Z,724.00
2022-08-07T08:31:05.476Z,724.00
2022-08-07T08:32:17.939Z,728.00
2022-08-07T08:33:05.467Z,728.00
2022-08-07T08:34:05.427Z,736.00
2022-08-07T08:35:05.413Z,740.00
2022-08-07T08:36:05.417Z,744.00
2022-08-07T08:37:09.861Z,748.00
2022-08-07T08:38:05.445Z,756.00
2022-08-07T08:39:05.416Z,752.00
2022-08-07T08:40:05.461Z,756.00
2022-08-07T08:41:05.389Z,744.00
2022-08-07T08:42:05.309Z,760.00
2022-08-07T08:43:05.306Z,768.00
2022-08-07T08:44:05.288Z,772.00
2022-08-07T08:45:05.254Z,772.00
2022-08-07T08:46:05.242Z,776.00
2022-08-07T08:47:05.235Z,784.00
2022-08-07T08:48:05.214Z,792.00
2022-08-07T08:49:05.251Z,796.00
2022-08-07T08:50:05.976Z,796.00
2022-08-07T08:51:14.637Z,812.00
2022-08-07T08:52:14.067Z,816.00
2022-08-07T08:53:05.134Z,828.00
2022-08-07T08:54:05.124Z,848.00
2022-08-07T08:55:07.819Z,856.00
2022-08-07T08:56:05.091Z,872.00
2022-08-07T08:57:05.069Z,888.00
2022-08-07T08:58:05.058Z,900.00
2022-08-07T08:59:08.671Z,912.00
2022-08-07T09:00:05.025Z,924.00
2022-08-07T09:01:15.296Z,932.00
2022-08-07T09:02:05.089Z,952.00
2022-08-07T09:03:07.531Z,968.00
2022-08-07T09:04:05.010Z,1008.00
2022-08-07T09:05:04.952Z,996.00
2022-08-07T09:06:04.929Z,1012.00
2022-08-07T09:07:04.920Z,1032.00
2022-08-07T09:08:04.907Z,1052.00
2022-08-07T09:09:13.568Z,1068.00
2022-08-07T09:10:04.893Z,1104.00
2022-08-07T09:11:04.861Z,1116.00
2022-08-07T09:12:30.509Z,1152.00
2022-08-07T09:13:04.831Z,1172.00
2022-08-07T09:14:04.814Z,1200.00
2022-08-07T09:16:23.931Z,1228.00
2022-08-07T09:16:24.390Z,1248.00
2022-08-07T09:17:05.354Z,1272.00
2022-08-07T09:18:09.913Z,1296.00
2022-08-07T09:19:07.257Z,1332.00
2022-08-07T09:20:35.042Z,1412.00
2022-08-07T09:21:04.921Z,1508.00
2022-08-07T09:22:22.656Z,1644.00
2022-08-07T09:24:32.504Z,2396.00
2022-08-07T09:24:53.917Z,1640.00
2022-08-07T09:25:11.922Z,4364.00
2022-08-07T09:26:04.641Z,6088.00
2022-08-07T09:27:11.851Z,12360.00
2022-08-07T09:28:04.614Z,9836.00
2022-08-07T09:30:01.981Z,10852.00
2022-08-07T09:30:08.373Z,10464.00
2022-08-07T09:31:04.570Z,6724.00
2022-08-07T09:32:04.554Z,7472.00
2022-08-07T09:33:05.716Z,5196.00
2022-08-07T09:34:04.541Z,3484.00
2022-08-07T09:36:04.048Z,3476.00
2022-08-07T09:36:07.720Z,5344.00
2022-08-07T09:37:04.490Z,5144.00
2022-08-07T09:38:04.497Z,5940.00
2022-08-07T09:39:11.489Z,14108.00
2022-08-07T09:40:04.497Z,19008.00
2022-08-07T09:41:04.424Z,20960.00
2022-08-07T09:42:07.596Z,21632.00
2022-08-07T09:43:04.404Z,21600.00
2022-08-07T09:44:06.634Z,21984.00
2022-08-07T09:47:27.389Z,21120.00
2022-08-07T09:47:49.909Z,19200.00
2022-08-07T09:47:52.194Z,16384.00
2022-08-07T09:48:11.748Z,15328.00
2022-08-07T09:50:02.859Z,14816.00
2022-08-07T09:50:19.032Z,13176.00
2022-08-07T09:51:04.446Z,11832.00
2022-08-07T09:52:15.459Z,11116.00
2022-08-07T09:53:04.283Z,10388.00
2022-08-07T09:54:04.286Z,9748.00
2022-08-07T09:55:04.274Z,8700.00
2022-08-07T09:56:05.242Z,7904.00
2022-08-07T09:57:04.229Z,7704.00
2022-08-07T09:58:04.230Z,7252.00
2022-08-07T09:59:07.549Z,6976.00
2022-08-07T10:00:04.264Z,7552.00
2022-08-07T10:01:08.482Z,10856.00
2022-08-07T10:02:04.195Z,12676.00
2022-08-07T10:03:07.884Z,11604.00
2022-08-07T10:04:14.172Z,9760.00
2022-08-07T10:05:12.586Z,8852.00
2022-08-07T10:06:12.079Z,9316.00
2022-08-07T10:07:04.153Z,10296.00
2022-08-07T10:08:04.207Z,10776.00
2022-08-07T10:09:04.117Z,11640.00
2022-08-07T10:10:04.130Z,13320.00
2022-08-07T10:11:58.905Z,16256.00
2022-08-07T10:12:11.797Z,21184.00
2022-08-07T10:13:04.097Z,19936.00
2022-08-07T10:14:04.081Z,22624.00
2022-08-07T10:15:04.073Z,22496.00
2022-08-07T10:16:04.090Z,23072.00
2022-08-07T10:17:04.053Z,24000.00
2022-08-07T10:18:04.051Z,23424.00
2022-08-07T10:19:04.042Z,23072.00
2022-08-07T10:20:04.035Z,22784.00
2022-08-07T10:21:04.031Z,17184.00
2022-08-07T10:22:15.071Z,21568.00
2022-08-07T10:23:04.022Z,15712.00
2022-08-07T10:24:05.881Z,17504.00
2022-08-07T10:25:03.996Z,21952.00
2022-08-07T10:26:03.998Z,21504.00
2022-08-07T10:27:06.636Z,20704.00
2022-08-07T10:28:03.985Z,15712.00
2022-08-07T10:29:03.974Z,10444.00
2022-08-07T10:30:03.955Z,13736.00
2022-08-07T10:31:06.056Z,11940.00
2022-08-07T10:32:03.947Z,12844.00
2022-08-07T10:33:03.933Z,15744.00
2022-08-07T10:34:07.028Z,16384.00
2022-08-07T10:35:03.917Z,15232.00
2022-08-07T10:36:11.043Z,19264.00
2022-08-07T10:37:04.768Z,19104.00
2022-08-07T10:38:34.945Z,15456.00
2022-08-07T10:39:05.482Z,12328.00
2022-08-07T10:40:06.105Z,10452.00
2022-08-07T10:41:04.116Z,7236.00
2022-08-07T10:42:09.788Z,9152.00
2022-08-07T10:43:03.870Z,14432.00
2022-08-07T10:44:07.766Z,11720.00
2022-08-07T10:45:03.863Z,7728.00
2022-08-07T10:46:03.857Z,6904.00
2022-08-07T10:47:03.836Z,6904.00
2022-08-07T10:48:04.255Z,6948.00
2022-08-07T10:49:03.811Z,7224.00
2022-08-07T10:50:03.828Z,6972.00
2022-08-07T10:51:03.992Z,6892.00
2022-08-07T10:52:13.741Z,6488.00
2022-08-07T10:53:08.034Z,7512.00
2022-08-07T10:54:03.776Z,9152.00
2022-08-07T10:55:20.840Z,11316.00
2022-08-07T10:56:03.786Z,9776.00
2022-08-07T10:57:04.560Z,10088.00
2022-08-07T10:58:03.748Z,17920.00
2022-08-07T10:59:03.733Z,12112.00
2022-08-07T11:00:03.735Z,15136.00
2022-08-07T11:01:11.364Z,16288.00
2022-08-07T11:02:04.814Z,17920.00
2022-08-07T11:03:03.747Z,21664.00
2022-08-07T11:04:16.520Z,24160.00
2022-08-07T11:05:10.210Z,20256.00
2022-08-07T11:06:04.771Z,9076.00
2022-08-07T11:07:03.678Z,7388.00
2022-08-07T11:08:03.788Z,6132.00
2022-08-07T11:09:03.675Z,7264.00
2022-08-07T11:10:07.964Z,20096.00
2022-08-07T11:11:03.651Z,30592.00
2022-08-07T11:12:03.643Z,29056.00
2022-08-07T11:13:03.659Z,17120.00
2022-08-07T11:14:43.555Z,15648.00
2022-08-07T11:15:03.618Z,12404.00
2022-08-07T11:16:03.608Z,14752.00
2022-08-07T11:17:07.225Z,12360.00
2022-08-07T11:18:04.565Z,8256.00
2022-08-07T11:19:03.611Z,7212.00
2022-08-07T11:20:03.615Z,6968.00
2022-08-07T11:21:03.585Z,6856.00
2022-08-07T11:22:03.583Z,6968.00
2022-08-07T11:23:03.562Z,7464.00
2022-08-07T11:24:03.555Z,13180.00
2022-08-07T11:25:06.607Z,25632.00
2022-08-07T11:26:06.505Z,35616.00
2022-08-07T11:27:03.529Z,36416.00
2022-08-07T11:28:04.430Z,36704.00
2022-08-07T11:29:05.692Z,37440.00
2022-08-07T11:30:17.863Z,36704.00
2022-08-07T11:31:03.515Z,37024.00
2022-08-07T11:32:03.490Z,33344.00
2022-08-07T11:33:08.121Z,31168.00
2022-08-07T11:34:03.473Z,22688.00
2022-08-07T11:35:03.477Z,20256.00
2022-08-07T11:36:08.102Z,23776.00
2022-08-07T11:37:03.449Z,37440.00
2022-08-07T11:38:10.221Z,41664.00
2022-08-07T11:39:03.465Z,41952.00
2022-08-07T11:40:03.936Z,46464.00
2022-08-07T11:41:03.449Z,45536.00
2022-08-07T11:42:03.530Z,44224.00
2022-08-07T11:43:03.410Z,46080.00
2022-08-07T11:44:12.670Z,45376.00
2022-08-07T11:45:03.521Z,46592.00
2022-08-07T11:46:03.383Z,15040.00
2022-08-07T11:47:03.376Z,9956.00
2022-08-07T11:48:06.066Z,8424.00
2022-08-07T11:49:50.696Z,7792.00
2022-08-07T11:50:31.086Z,7824.00
2022-08-07T11:51:03.423Z,7956.00
2022-08-07T11:52:03.364Z,8168.00
2022-08-07T11:53:05.179Z,8780.00
2022-08-07T11:54:09.727Z,28928.00
2022-08-07T11:55:03.322Z,40544.00
2022-08-07T11:56:25.212Z,50720.00
2022-08-07T11:57:03.295Z,56480.00
2022-08-07T11:58:03.420Z,57152.00
2022-08-07T11:59:03.296Z,56160.00
2022-08-07T12:00:12.560Z,57152.00
2022-08-07T12:01:05.248Z,51392.00
2022-08-07T12:02:03.392Z,29888.00
2022-08-07T12:03:03.438Z,39040.00
2022-08-07T12:04:03.325Z,56384.00
2022-08-07T12:05:03.249Z,35296.00
2022-08-07T12:06:37.674Z,65120.00
2022-08-07T12:07:10.126Z,60128.00
2022-08-07T12:08:03.688Z,60512.00
2022-08-07T12:09:03.214Z,63744.00
2022-08-07T12:10:05.793Z,62272.00
2022-08-07T12:11:20.115Z,66112.00
2022-08-07T12:12:10.335Z,60256.00
2022-08-07T12:13:03.197Z,64256.00
2022-08-07T12:14:03.189Z,61440.00
2022-08-07T12:15:03.183Z,49888.00
2022-08-07T12:16:06.769Z,40736.00
2022-08-07T12:17:04.360Z,39648.00
2022-08-07T12:18:07.959Z,18880.00
2022-08-07T12:19:03.132Z,10744.00
2022-08-07T12:20:10.318Z,12484.00
2022-08-07T12:21:03.115Z,14012.00
2022-08-07T12:22:39.327Z,14240.00
2022-08-07T12:23:08.992Z,13348.00
2022-08-07T12:24:05.501Z,11124.00
2022-08-07T12:25:07.535Z,9852.00
2022-08-07T12:26:23.332Z,10268.00
2022-08-07T12:27:03.071Z,9996.00
2022-08-07T12:28:08.445Z,15808.00
2022-08-07T12:29:03.687Z,17376.00
2022-08-07T12:30:03.040Z,13404.00
2022-08-07T12:31:03.035Z,9068.00
2022-08-07T12:32:04.607Z,8508.00
2022-08-07T12:33:03.023Z,8644.00
2022-08-07T12:34:04.270Z,8780.00
2022-08-07T12:35:03.008Z,10092.00
2022-08-07T12:36:03.020Z,13652.00
2022-08-07T12:37:08.679Z,33120.00
2022-08-07T12:38:09.643Z,81856.00
2022-08-07T12:39:03.003Z,89824.00
2022-08-07T12:40:02.995Z,88832.00
2022-08-07T12:41:02.980Z,90688.00
2022-08-07T12:42:02.964Z,85248.00
2022-08-07T12:43:03.028Z,87680.00
2022-08-07T12:44:05.604Z,87968.00
2022-08-07T12:45:05.745Z,83968.00
2022-08-07T12:46:02.912Z,76320.00
2022-08-07T12:47:02.908Z,66400.00
2022-08-07T12:48:02.894Z,57152.00
2022-08-07T12:49:10.098Z,45600.00
2022-08-07T12:50:05.127Z,31552.00
2022-08-07T12:51:13.232Z,19296.00
2022-08-07T12:52:13.663Z,16992.00
2022-08-07T12:53:05.349Z,16864.00
2022-08-07T12:54:37.059Z,9888.00
2022-08-07T12:55:05.611Z,6164.00
2022-08-07T12:56:04.065Z,5952.00
2022-08-07T12:57:09.410Z,24928.00
2022-08-07T12:58:02.975Z,19488.00
2022-08-07T12:59:02.818Z,6960.00
2022-08-07T13:00:02.802Z,3764.00
2022-08-07T13:01:02.876Z,3660.00
2022-08-07T13:02:02.780Z,3804.00
2022-08-07T13:03:06.944Z,3628.00
2022-08-07T13:04:05.004Z,3636.00
2022-08-07T13:05:02.748Z,3764.00
2022-08-07T13:06:21.443Z,4252.00
2022-08-07T13:07:02.741Z,5148.00
2022-08-07T13:08:14.210Z,6064.00
2022-08-07T13:09:02.735Z,10756.00
2022-08-07T13:10:20.719Z,28512.00
2022-08-07T13:11:02.705Z,36320.00
2022-08-07T13:12:09.923Z,16736.00
2022-08-07T13:13:02.691Z,22688.00
2022-08-07T13:14:02.674Z,18912.00
2022-08-07T13:15:02.689Z,9032.00
2022-08-07T13:16:02.660Z,5788.00
2022-08-07T13:17:02.646Z,5260.00
2022-08-07T13:18:02.635Z,5272.00
2022-08-07T13:19:02.639Z,5316.00
2022-08-07T13:20:02.668Z,5680.00
2022-08-07T13:21:02.786Z,6236.00
2022-08-07T13:22:19.368Z,8460.00
2022-08-07T13:23:09.688Z,13412.00
2022-08-07T13:24:04.755Z,10660.00
2022-08-07T13:25:02.685Z,11120.00
2022-08-07T13:26:02.565Z,29152.00
2022-08-07T13:27:02.902Z,28032.00
2022-08-07T13:28:11.459Z,27168.00
2022-08-07T13:29:02.558Z,31040.00
2022-08-07T13:30:03.561Z,30464.00
2022-08-07T13:31:06.366Z,18496.00
2022-08-07T13:32:31.073Z,22080.00
2022-08-07T13:33:02.517Z,73888.00
2022-08-07T13:34:33.313Z,70848.00
2022-08-07T13:35:08.469Z,37056.00
2022-08-07T13:36:05.861Z,30976.00
2022-08-07T13:37:02.482Z,46400.00
2022-08-07T13:38:02.450Z,13600.00
2022-08-07T13:39:02.501Z,5664.00
2022-08-07T13:40:34.067Z,5080.00
2022-08-07T13:41:02.487Z,5104.00
2022-08-07T13:42:02.424Z,5220.00
2022-08-07T13:43:02.416Z,5392.00
2022-08-07T13:44:02.440Z,6052.00
2022-08-07T13:45:20.961Z,7388.00
2022-08-07T13:46:10.764Z,7308.00
2022-08-07T13:47:02.380Z,7192.00
2022-08-07T13:48:05.769Z,9336.00
2022-08-07T13:49:02.358Z,8936.00
2022-08-07T13:50:35.278Z,5928.00
2022-08-07T13:51:28.420Z,6920.00
2022-08-07T13:52:22.998Z,29856.00
2022-08-07T13:53:02.331Z,53472.00
2022-08-07T13:54:03.461Z,74560.00
2022-08-07T13:55:02.306Z,41696.00
2022-08-07T13:56:02.338Z,27232.00
2022-08-07T13:57:02.290Z,41120.00
2022-08-07T13:58:02.623Z,57856.00
2022-08-07T13:59:02.275Z,28800.00
2022-08-07T14:00:02.290Z,10336.00
2022-08-07T14:01:09.063Z,38688.00
2022-08-07T14:02:04.369Z,79840.00
2022-08-07T14:03:02.262Z,67808.00
2022-08-07T14:04:07.698Z,57888.00
2022-08-07T14:05:02.369Z,50368.00
2022-08-07T14:06:02.221Z,43296.00
2022-08-07T14:07:02.224Z,33952.00
2022-08-07T14:08:02.244Z,20288.00
2022-08-07T14:09:04.491Z,21728.00
2022-08-07T14:10:17.713Z,50080.00
2022-08-07T14:11:14.766Z,53536.00
2022-08-07T14:12:07.235Z,55200.00
2022-08-07T14:13:02.164Z,49152.00
2022-08-07T14:14:02.158Z,14720.00
2022-08-07T14:15:02.148Z,10096.00
2022-08-07T14:16:02.167Z,16672.00
2022-08-07T14:17:32.431Z,49504.00
2022-08-07T14:18:16.143Z,51840.00
2022-08-07T14:19:02.776Z,50400.00
2022-08-07T14:20:40.473Z,46496.00
2022-08-07T14:21:08.079Z,56384.00
2022-08-07T14:22:10.753Z,52640.00
2022-08-07T14:23:02.103Z,62336.00
2022-08-07T14:24:03.646Z,71744.00
2022-08-07T14:25:02.076Z,77408.00
2022-08-07T14:26:02.063Z,83104.00
2022-08-07T14:27:02.053Z,81120.00
2022-08-07T14:28:11.419Z,72512.00
2022-08-07T14:30:06.590Z,55040.00
2022-08-07T14:31:02.561Z,73248.00
2022-08-07T14:32:02.036Z,83232.00
2022-08-07T14:33:02.045Z,74816.00
2022-08-07T14:34:02.003Z,54080.00
2022-08-07T14:35:03.989Z,41760.00
2022-08-07T14:36:01.986Z,22336.00
2022-08-07T14:37:03.010Z,10992.00
2022-08-07T14:38:06.076Z,8684.00
2022-08-07T14:39:02.031Z,6776.00
2022-08-07T14:40:17.392Z,6292.00
2022-08-07T14:41:03.863Z,5632.00
2022-08-07T14:42:18.888Z,5460.00
2022-08-07T14:43:59.469Z,5264.00
2022-08-07T14:44:11.704Z,5152.00
2022-08-07T14:45:21.354Z,5092.00
2022-08-07T14:46:01.912Z,5000.00
2022-08-07T14:47:14.681Z,4880.00
2022-08-07T14:48:01.925Z,4792.00
2022-08-07T14:49:55.900Z,4808.00
2022-08-07T14:50:01.882Z,5044.00
2022-08-07T14:51:01.901Z,5108.00
2022-08-07T14:52:03.730Z,5176.00
2022-08-07T14:54:20.840Z,5436.00
2022-08-07T14:55:02.414Z,6016.00
2022-08-07T14:56:02.153Z,10752.00
2022-08-07T14:57:02.128Z,17600.00
2022-08-07T14:58:02.014Z,40800.00
2022-08-07T14:59:01.828Z,57536.00
2022-08-07T15:00:05.155Z,62912.00
2022-08-07T15:01:21.802Z,63808.00
2022-08-07T15:02:01.789Z,67616.00
2022-08-07T15:03:16.423Z,53312.00
2022-08-07T15:04:05.684Z,12432.00
2022-08-07T15:05:02.150Z,2872.00
2022-08-07T15:06:03.897Z,2608.00
2022-08-07T15:07:01.747Z,2400.00
2022-08-07T15:08:01.737Z,2280.00
2022-08-07T15:09:01.744Z,2196.00
2022-08-07T15:10:04.856Z,2084.00
2022-08-07T15:11:01.807Z,2008.00
2022-08-07T15:12:01.747Z,1912.00
2022-08-07T15:13:01.686Z,1840.00
2022-08-07T15:14:09.891Z,1764.00
2022-08-07T15:15:07.367Z,1676.00
2022-08-07T15:16:01.663Z,1564.00
2022-08-07T15:17:01.662Z,1384.00
2022-08-07T15:18:02.435Z,1288.00
2022-08-07T15:19:01.657Z,1244.00
2022-08-07T15:20:33.046Z,1236.00
2022-08-07T15:22:04.573Z,1132.00
2022-08-07T15:23:20.322Z,1052.00
2022-08-07T15:25:13.547Z,1024.00
2022-08-07T15:25:14.460Z,992.00
2022-08-07T15:26:01.579Z,988.00
2022-08-07T15:27:01.543Z,988.00
2022-08-07T15:30:06.371Z,976.00
2022-08-07T15:30:06.635Z,968.00
2022-08-07T15:31:05.849Z,968.00
2022-08-07T15:32:02.737Z,960.00
2022-08-07T15:33:05.624Z,960.00
2022-08-07T15:34:01.463Z,948.00
2022-08-07T15:35:01.470Z,936.00
2022-08-07T15:37:03.827Z,908.00
2022-08-07T15:38:17.829Z,924.00
2022-08-07T15:39:01.436Z,936.00
2022-08-07T15:40:01.509Z,920.00
2022-08-07T15:41:23.696Z,1568.00
2022-08-07T15:42:45.628Z,1472.00
2022-08-07T15:43:01.516Z,1564.00
2022-08-07T15:44:01.345Z,1520.00
2022-08-07T15:45:01.398Z,1704.00
2022-08-07T15:46:31.095Z,1500.00
2022-08-07T15:47:03.380Z,1496.00
2022-08-07T15:48:02.043Z,1324.00
2022-08-07T15:49:12.027Z,1872.00
2022-08-07T15:50:05.863Z,1756.00
2022-08-07T15:51:08.703Z,1720.00
2022-08-07T15:52:01.692Z,1040.00
2022-08-07T15:53:02.499Z,1052.00
2022-08-07T15:54:01.232Z,1088.00
2022-08-07T15:55:02.690Z,1132.00
2022-08-07T15:56:02.969Z,1036.00
2022-08-07T15:57:01.208Z,1060.00
2022-08-07T15:58:01.197Z,1064.00
2022-08-07T15:59:01.158Z,1044.00
2022-08-07T16:00:04.397Z,1052.00
2022-08-07T16:01:01.174Z,1040.00
2022-08-07T16:02:01.987Z,1072.00
2022-08-07T16:03:01.123Z,1048.00
2022-08-07T16:04:01.107Z,1016.00
2022-08-07T16:05:01.082Z,992.00
2022-08-07T16:06:01.080Z,980.00
2022-08-07T16:07:01.066Z,960.00
2022-08-07T16:08:31.235Z,904.00
2022-08-07T16:09:01.028Z,944.00
2022-08-07T16:10:01.054Z,1028.00
2022-08-07T16:11:01.023Z,948.00
2022-08-07T16:12:00.987Z,972.00
2022-08-07T16:13:05.492Z,1012.00
2022-08-07T16:14:02.915Z,1068.00
2022-08-07T16:15:00.965Z,1072.00
2022-08-07T16:16:06.120Z,948.00
2022-08-07T16:17:00.951Z,880.00
2022-08-07T16:18:03.798Z,872.00
2022-08-07T16:19:00.908Z,820.00
2022-08-07T16:20:00.893Z,840.00
2022-08-07T16:22:01.814Z,880.00
2022-08-07T16:22:04.079Z,948.00
2022-08-07T16:23:05.460Z,1004.00
2022-08-07T16:24:00.833Z,1056.00
2022-08-07T16:25:00.811Z,1088.00
2022-08-07T16:26:00.805Z,1096.00
2022-08-07T16:27:00.788Z,1084.00
2022-08-07T16:28:00.794Z,1084.00
2022-08-07T16:30:07.341Z,1076.00
2022-08-07T16:30:10.861Z,1076.00
2022-08-07T16:31:00.732Z,1056.00
2022-08-07T16:32:00.799Z,1044.00
2022-08-07T16:34:02.756Z,1032.00
2022-08-07T16:34:10.224Z,996.00
2022-08-07T16:35:00.693Z,980.00
2022-08-07T16:36:00.777Z,980.00
2022-08-07T16:37:02.420Z,992.00
2022-08-07T16:38:05.945Z,1000.00
2022-08-07T16:39:02.076Z,1016.00
2022-08-07T16:40:00.733Z,1024.00
2022-08-07T16:41:02.411Z,1012.00
2022-08-07T16:42:00.682Z,1024.00
2022-08-07T16:43:00.570Z,976.00
2022-08-07T16:44:03.881Z,1252.00
2022-08-07T16:45:24.604Z,1308.00
2022-08-07T16:46:33.513Z,1272.00
2022-08-07T16:47:16.036Z,1216.00
2022-08-07T16:48:00.503Z,1192.00
2022-08-07T16:50:20.822Z,1100.00
2022-08-07T16:50:27.789Z,1384.00
2022-08-07T16:51:20.938Z,968.00
2022-08-07T16:52:48.671Z,992.00
2022-08-07T16:53:14.720Z,924.00
2022-08-07T16:54:06.494Z,916.00
2022-08-07T16:55:08.162Z,956.00
2022-08-07T16:56:00.389Z,900.00
2022-08-07T16:57:00.379Z,908.00
2022-08-07T16:58:02.412Z,1108.00
2022-08-07T16:59:10.581Z,1204.00
2022-08-07T17:00:00.332Z,1560.00
2022-08-07T17:01:00.390Z,2236.00
2022-08-07T17:02:02.895Z,2552.00
2022-08-07T17:03:04.776Z,1980.00
2022-08-07T17:04:00.569Z,1896.00
2022-08-07T17:05:00.287Z,1144.00
2022-08-07T17:06:19.930Z,912.00
2022-08-07T17:07:03.965Z,856.00
2022-08-07T17:08:00.248Z,916.00
2022-08-07T17:09:10.651Z,872.00
2022-08-07T17:10:08.010Z,968.00
2022-08-07T17:11:00.206Z,1272.00
2022-08-07T17:12:04.115Z,812.00
2022-08-07T17:13:01.072Z,780.00
2022-08-07T17:14:19.192Z,740.00
2022-08-07T17:15:00.140Z,700.00
2022-08-07T17:16:00.129Z,688.00
2022-08-07T17:17:00.134Z,740.00
2022-08-07T17:18:00.092Z,792.00
2022-08-07T17:19:00.102Z,792.00
2022-08-07T17:20:02.966Z,900.00
2022-08-07T17:21:00.049Z,764.00
2022-08-07T17:22:00.044Z,624.00
2022-08-07T17:23:00.038Z,620.00
2022-08-07T17:24:00.006Z,612.00
2022-08-07T17:25:00.010Z,608.00
2022-08-07T17:25:59.981Z,608.00
2022-08-07T17:26:59.963Z,608.00
2022-08-07T17:28:00.439Z,596.00
2022-08-07T17:29:04.481Z,600.00
2022-08-07T17:30:15.818Z,596.00
2022-08-07T17:30:59.913Z,588.00
2022-08-07T17:32:02.479Z,576.00
2022-08-07T17:32:59.878Z,576.00
2022-08-07T17:34:32.794Z,576.00
2022-08-07T17:35:50.880Z,584.00
2022-08-07T17:35:59.841Z,584.00
2022-08-07T17:37:09.724Z,572.00
2022-08-07T17:38:06.665Z,564.00
2022-08-07T17:38:59.869Z,568.00
2022-08-07T17:40:03.428Z,568.00
2022-08-07T17:40:59.768Z,572.00
2022-08-07T17:42:03.476Z,568.00
2022-08-07T17:43:00.479Z,560.00
2022-08-07T17:44:03.182Z,552.00
2022-08-07T17:44:59.729Z,544.00
2022-08-07T17:45:59.711Z,540.00
2022-08-07T17:46:59.683Z,536.00
2022-08-07T17:47:59.686Z,528.00
2022-08-07T17:48:59.650Z,520.00
2022-08-07T17:49:59.674Z,504.00
2022-08-07T17:50:59.630Z,484.00
2022-08-07T17:52:01.463Z,468.00
2022-08-07T17:53:00.605Z,452.00
2022-08-07T17:54:01.992Z,440.00
2022-08-07T17:54:59.561Z,412.00
2022-08-07T17:56:06.194Z,392.00
2022-08-07T17:56:59.533Z,368.00
2022-08-07T17:58:02.256Z,352.00
2022-08-07T17:58:59.522Z,336.00
2022-08-07T17:59:59.496Z,320.00
2022-08-07T18:00:59.549Z,308.00
2022-08-07T18:01:59.510Z,300.00
2022-08-07T18:02:59.455Z,292.00
2022-08-07T18:04:07.126Z,288.00
2022-08-07T18:04:59.428Z,280.00
2022-08-07T18:06:03.327Z,272.00
2022-08-07T18:07:19.956Z,264.00
2022-08-07T18:07:59.393Z,256.00
2022-08-07T18:09:05.797Z,248.00
2022-08-07T18:10:07.074Z,244.00
2022-08-07T18:11:53.551Z,240.00
2022-08-07T18:12:17.715Z,236.00
2022-08-07T18:12:59.320Z,232.00
2022-08-07T18:14:01.618Z,232.00
2022-08-07T18:14:59.277Z,232.00
2022-08-07T18:15:59.290Z,232.00
2022-08-07T18:16:59.259Z,228.00
2022-08-07T18:18:44.805Z,224.00
2022-08-07T18:21:04.198Z,224.00
2022-08-07T18:21:06.590Z,216.00
2022-08-07T18:21:10.962Z,212.00
2022-08-07T18:22:03.467Z,208.00
2022-08-07T18:22:59.159Z,204.00
2022-08-07T18:23:59.148Z,200.00
2022-08-07T18:24:59.129Z,196.00
2022-08-07T18:26:00.962Z,192.00
2022-08-07T18:26:59.119Z,192.00
2022-08-07T18:27:59.092Z,192.00
2022-08-07T18:28:59.157Z,196.00
2022-08-07T18:30:06.026Z,204.00
2022-08-07T18:30:59.078Z,208.00
2022-08-07T18:31:59.025Z,208.00
2022-08-07T18:33:10.972Z,208.00
2022-08-07T18:33:59.071Z,204.00
2022-08-07T18:35:01.579Z,200.00
2022-08-07T18:35:58.965Z,196.00
2022-08-07T18:36:58.967Z,196.00
2022-08-07T18:38:58.722Z,192.00
2022-08-07T18:39:01.136Z,184.00
2022-08-07T18:40:06.407Z,180.00
2022-08-07T18:41:07.906Z,176.00
2022-08-07T18:41:58.938Z,172.00
2022-08-07T18:42:58.857Z,164.00
2022-08-07T18:43:59.076Z,164.00
2022-08-07T18:45:44.432Z,160.00
2022-08-07T18:46:25.494Z,156.00
2022-08-07T18:47:00.300Z,152.00
2022-08-07T18:48:00.699Z,148.00
2022-08-07T18:50:19.686Z,140.00
2022-08-07T18:50:30.416Z,136.00
2022-08-07T18:50:58.763Z,132.00
2022-08-07T18:52:34.750Z,128.00
2022-08-07T18:53:04.577Z,120.00
2022-08-07T18:53:58.694Z,116.00
2022-08-07T18:54:58.688Z,108.00
2022-08-07T18:55:58.670Z,104.00
2022-08-07T18:57:30.543Z,100.00
2022-08-07T18:57:59.686Z,96.00
2022-08-07T18:58:58.633Z,84.00
2022-08-07T19:00:00.631Z,80.00
2022-08-07T19:00:59.548Z,76.00
2022-08-07T19:02:18.632Z,72.00
2022-08-07T19:02:58.617Z,68.00
2022-08-07T19:03:58.605Z,60.00
2022-08-07T19:05:14.829Z,60.00
2022-08-07T19:06:04.065Z,56.00
2022-08-07T19:06:58.496Z,52.00
2022-08-07T19:07:58.850Z,52.00
2022-08-07T19:08:58.773Z,44.00
2022-08-07T19:09:58.974Z,44.00
2022-08-07T19:10:58.446Z,44.00
2022-08-07T19:12:04.673Z,36.00
2022-08-07T19:13:10.414Z,32.00
2022-08-07T19:13:58.398Z,32.00
2022-08-07T19:14:58.374Z,24.00
2022-08-07T19:16:05.472Z,24.00
2022-08-07T19:17:07.612Z,16.00
2022-08-07T19:18:02.876Z,20.00
2022-08-07T19:18:58.691Z,16.00
2022-08-07T19:19:58.320Z,16.00